sensor_id;sensor_type;location;lat;lon;timestamp;pressure;altitude;pressure_sealevel;temperature
62930;BMP280;49036;42.782;23.108;2023-08-01T00:00:27;93720.50;;;15.53
62930;BMP280;49036;42.782;23.108;2023-08-01T00:02:52;93712.19;;;15.55
62930;BMP280;49036;42.782;23.108;2023-08-01T00:05:18;93715.97;;;15.62
62930;BMP280;49036;42.782;23.108;2023-08-01T00:07:43;93710.75;;;15.70
62930;BMP280;49036;42.782;23.108;2023-08-01T00:10:09;93708.47;;;15.82
62930;BMP280;49036;42.782;23.108;2023-08-01T00:12:35;93714.25;;;15.86
62930;BMP280;49036;42.782;23.108;2023-08-01T00:15:01;93711.25;;;15.98
62930;BMP280;49036;42.782;23.108;2023-08-01T00:17:26;93716.31;;;16.02
62930;BMP280;49036;42.782;23.108;2023-08-01T00:19:52;93715.41;;;15.97
62930;BMP280;49036;42.782;23.108;2023-08-01T00:22:18;93715.22;;;15.93
62930;BMP280;49036;42.782;23.108;2023-08-01T00:24:43;93715.63;;;15.85
62930;BMP280;49036;42.782;23.108;2023-08-01T00:27:09;93710.47;;;15.80
62930;BMP280;49036;42.782;23.108;2023-08-01T00:29:36;93705.97;;;15.73
62930;BMP280;49036;42.782;23.108;2023-08-01T00:32:01;93711.28;;;15.67
62930;BMP280;49036;42.782;23.108;2023-08-01T00:34:28;93708.75;;;15.57
62930;BMP280;49036;42.782;23.108;2023-08-01T00:36:54;93706.94;;;15.48
62930;BMP280;49036;42.782;23.108;2023-08-01T00:39:19;93710.63;;;15.37
62930;BMP280;49036;42.782;23.108;2023-08-01T00:41:44;93707.47;;;15.28
62930;BMP280;49036;42.782;23.108;2023-08-01T00:44:10;93709.91;;;15.20
62930;BMP280;49036;42.782;23.108;2023-08-01T00:46:36;93710.25;;;15.13
62930;BMP280;49036;42.782;23.108;2023-08-01T00:49:02;93709.84;;;15.05
62930;BMP280;49036;42.782;23.108;2023-08-01T00:51:29;93709.56;;;14.99
62930;BMP280;49036;42.782;23.108;2023-08-01T00:53:55;93708.66;;;14.94
62930;BMP280;49036;42.782;23.108;2023-08-01T00:56:21;93715.41;;;14.89
62930;BMP280;49036;42.782;23.108;2023-08-01T00:58:47;93702.69;;;14.86
62930;BMP280;49036;42.782;23.108;2023-08-01T01:01:12;93698.25;;;14.81
62930;BMP280;49036;42.782;23.108;2023-08-01T01:03:38;93696.81;;;14.80
62930;BMP280;49036;42.782;23.108;2023-08-01T01:08:57;93694.34;;;14.72
62930;BMP280;49036;42.782;23.108;2023-08-01T01:11:22;93692.72;;;14.67
62930;BMP280;49036;42.782;23.108;2023-08-01T01:13:48;93694.06;;;14.66
62930;BMP280;49036;42.782;23.108;2023-08-01T01:16:14;93685.88;;;14.70
62930;BMP280;49036;42.782;23.108;2023-08-01T01:18:40;93684.94;;;14.66
62930;BMP280;49036;42.782;23.108;2023-08-01T01:21:06;93679.16;;;14.61
62930;BMP280;49036;42.782;23.108;2023-08-01T01:23:33;93683.94;;;14.59
62930;BMP280;49036;42.782;23.108;2023-08-01T01:25:59;93681.41;;;14.49
62930;BMP280;49036;42.782;23.108;2023-08-01T01:28:26;93680.03;;;14.50
62930;BMP280;49036;42.782;23.108;2023-08-01T01:30:52;93674.34;;;14.48
62930;BMP280;49036;42.782;23.108;2023-08-01T01:33:18;93667.84;;;14.44
62930;BMP280;49036;42.782;23.108;2023-08-01T01:35:44;93669.09;;;14.41
62930;BMP280;49036;42.782;23.108;2023-08-01T01:38:10;93673.34;;;14.42
62930;BMP280;49036;42.782;23.108;2023-08-01T01:40:35;93669.94;;;14.43
62930;BMP280;49036;42.782;23.108;2023-08-01T01:43:01;93672.94;;;14.34
62930;BMP280;49036;42.782;23.108;2023-08-01T01:45:27;93670.03;;;14.32
62930;BMP280;49036;42.782;23.108;2023-08-01T01:47:52;93678.22;;;14.27
62930;BMP280;49036;42.782;23.108;2023-08-01T01:50:18;93673.78;;;14.22
62930;BMP280;49036;42.782;23.108;2023-08-01T01:52:44;93671.53;;;14.19
62930;BMP280;49036;42.782;23.108;2023-08-01T01:55:10;93668.81;;;14.21
62930;BMP280;49036;42.782;23.108;2023-08-01T01:57:36;93672.88;;;14.18
62930;BMP280;49036;42.782;23.108;2023-08-01T02:00:05;93677.53;;;14.13
62930;BMP280;49036;42.782;23.108;2023-08-01T02:02:35;93671.66;;;14.07
62930;BMP280;49036;42.782;23.108;2023-08-01T02:05:01;93673.47;;;14.03
62930;BMP280;49036;42.782;23.108;2023-08-01T02:07:29;93675.16;;;13.94
62930;BMP280;49036;42.782;23.108;2023-08-01T02:09:54;93675.66;;;13.90
62930;BMP280;49036;42.782;23.108;2023-08-01T02:12:20;93671.22;;;13.85
62930;BMP280;49036;42.782;23.108;2023-08-01T02:14:45;93676.38;;;13.77
62930;BMP280;49036;42.782;23.108;2023-08-01T02:17:11;93672.03;;;13.74
62930;BMP280;49036;42.782;23.108;2023-08-01T02:19:36;93668.22;;;13.68
62930;BMP280;49036;42.782;23.108;2023-08-01T02:22:02;93671.53;;;13.64
62930;BMP280;49036;42.782;23.108;2023-08-01T02:24:27;93672.06;;;13.60
62930;BMP280;49036;42.782;23.108;2023-08-01T02:26:53;93672.47;;;13.55
62930;BMP280;49036;42.782;23.108;2023-08-01T02:29:18;93671.75;;;13.54
62930;BMP280;49036;42.782;23.108;2023-08-01T02:31:44;93669.53;;;13.53
62930;BMP280;49036;42.782;23.108;2023-08-01T02:34:09;93666.03;;;13.52
62930;BMP280;49036;42.782;23.108;2023-08-01T02:36:35;93669.44;;;13.51
62930;BMP280;49036;42.782;23.108;2023-08-01T02:39:01;93667.38;;;13.51
62930;BMP280;49036;42.782;23.108;2023-08-01T02:41:26;93677.31;;;13.54
62930;BMP280;49036;42.782;23.108;2023-08-01T02:43:52;93683.28;;;13.49
62930;BMP280;49036;42.782;23.108;2023-08-01T02:46:17;93678.91;;;13.46
62930;BMP280;49036;42.782;23.108;2023-08-01T02:48:43;93680.19;;;13.43
62930;BMP280;49036;42.782;23.108;2023-08-01T02:51:08;93677.16;;;13.39
62930;BMP280;49036;42.782;23.108;2023-08-01T02:53:35;93673.63;;;13.38
62930;BMP280;49036;42.782;23.108;2023-08-01T02:56:01;93683.13;;;13.33
62930;BMP280;49036;42.782;23.108;2023-08-01T02:58:26;93672.41;;;13.27
62930;BMP280;49036;42.782;23.108;2023-08-01T03:00:52;93681.03;;;13.20
62930;BMP280;49036;42.782;23.108;2023-08-01T03:03:17;93681.34;;;13.12
62930;BMP280;49036;42.782;23.108;2023-08-01T03:05:43;93689.03;;;13.00
62930;BMP280;49036;42.782;23.108;2023-08-01T03:08:09;93685.69;;;12.90
62930;BMP280;49036;42.782;23.108;2023-08-01T03:10:34;93682.69;;;12.86
62930;BMP280;49036;42.782;23.108;2023-08-01T03:13:00;93697.41;;;12.88
62930;BMP280;49036;42.782;23.108;2023-08-01T03:15:27;93693.38;;;12.78
62930;BMP280;49036;42.782;23.108;2023-08-01T03:17:52;93688.91;;;12.73
62930;BMP280;49036;42.782;23.108;2023-08-01T03:20:18;93687.84;;;12.66
62930;BMP280;49036;42.782;23.108;2023-08-01T03:22:43;93683.50;;;12.63
62930;BMP280;49036;42.782;23.108;2023-08-01T03:25:09;93681.19;;;12.59
62930;BMP280;49036;42.782;23.108;2023-08-01T03:27:35;93693.06;;;12.60
62930;BMP280;49036;42.782;23.108;2023-08-01T03:30:01;93691.34;;;12.67
62930;BMP280;49036;42.782;23.108;2023-08-01T03:32:27;93684.28;;;12.77
62930;BMP280;49036;42.782;23.108;2023-08-01T03:34:53;93683.91;;;12.83
62930;BMP280;49036;42.782;23.108;2023-08-01T03:37:18;93684.47;;;12.93
62930;BMP280;49036;42.782;23.108;2023-08-01T03:39:44;93675.44;;;13.06
62930;BMP280;49036;42.782;23.108;2023-08-01T03:42:09;93676.94;;;13.21
62930;BMP280;49036;42.782;23.108;2023-08-01T03:44:35;93676.75;;;13.31
62930;BMP280;49036;42.782;23.108;2023-08-01T03:47:00;93678.66;;;13.53
62930;BMP280;49036;42.782;23.108;2023-08-01T03:49:26;93678.34;;;13.88
62930;BMP280;49036;42.782;23.108;2023-08-01T03:51:51;93681.25;;;14.18
62930;BMP280;49036;42.782;23.108;2023-08-01T03:54:17;93681.19;;;14.45
62930;BMP280;49036;42.782;23.108;2023-08-01T03:56:43;93676.66;;;14.68
62930;BMP280;49036;42.782;23.108;2023-08-01T03:59:12;93685.31;;;15.03
62930;BMP280;49036;42.782;23.108;2023-08-01T04:01:38;93688.97;;;15.37
62930;BMP280;49036;42.782;23.108;2023-08-01T04:04:04;93697.94;;;15.49
62930;BMP280;49036;42.782;23.108;2023-08-01T04:06:29;93685.94;;;15.47
62930;BMP280;49036;42.782;23.108;2023-08-01T04:08:55;93685.19;;;15.62
62930;BMP280;49036;42.782;23.108;2023-08-01T04:11:22;93680.69;;;15.86
62930;BMP280;49036;42.782;23.108;2023-08-01T04:13:48;93696.13;;;16.21
62930;BMP280;49036;42.782;23.108;2023-08-01T04:16:13;93709.59;;;16.76
62930;BMP280;49036;42.782;23.108;2023-08-01T04:18:39;93696.75;;;16.88
62930;BMP280;49036;42.782;23.108;2023-08-01T04:21:05;93698.44;;;17.13
62930;BMP280;49036;42.782;23.108;2023-08-01T04:23:31;93696.53;;;17.00
62930;BMP280;49036;42.782;23.108;2023-08-01T04:25:57;93698.44;;;17.13
62930;BMP280;49036;42.782;23.108;2023-08-01T04:28:23;93687.34;;;17.55
62930;BMP280;49036;42.782;23.108;2023-08-01T04:30:50;93689.72;;;17.82
62930;BMP280;49036;42.782;23.108;2023-08-01T04:33:15;93686.91;;;18.02
62930;BMP280;49036;42.782;23.108;2023-08-01T04:35:41;93681.25;;;18.22
62930;BMP280;49036;42.782;23.108;2023-08-01T04:38:07;93676.56;;;18.50
62930;BMP280;49036;42.782;23.108;2023-08-01T04:40:34;93684.59;;;18.82
62930;BMP280;49036;42.782;23.108;2023-08-01T04:43:01;93687.47;;;18.84
62930;BMP280;49036;42.782;23.108;2023-08-01T04:45:26;93683.31;;;19.32
62930;BMP280;49036;42.782;23.108;2023-08-01T04:47:52;93687.19;;;19.45
62930;BMP280;49036;42.782;23.108;2023-08-01T04:50:18;93688.75;;;19.50
62930;BMP280;49036;42.782;23.108;2023-08-01T04:52:43;93690.91;;;19.04
62930;BMP280;49036;42.782;23.108;2023-08-01T04:55:09;93694.72;;;18.91
62930;BMP280;49036;42.782;23.108;2023-08-01T04:57:34;93687.63;;;19.11
62930;BMP280;49036;42.782;23.108;2023-08-01T05:00:00;93692.25;;;19.25
62930;BMP280;49036;42.782;23.108;2023-08-01T05:02:25;93688.22;;;19.08
62930;BMP280;49036;42.782;23.108;2023-08-01T05:04:51;93684.09;;;19.11
62930;BMP280;49036;42.782;23.108;2023-08-01T05:07:17;93682.59;;;19.08
62930;BMP280;49036;42.782;23.108;2023-08-01T05:09:42;93689.34;;;19.23
62930;BMP280;49036;42.782;23.108;2023-08-01T05:12:08;93692.66;;;19.39
62930;BMP280;49036;42.782;23.108;2023-08-01T05:14:34;93688.19;;;19.56
62930;BMP280;49036;42.782;23.108;2023-08-01T05:17:00;93694.44;;;19.78
62930;BMP280;49036;42.782;23.108;2023-08-01T05:19:25;93692.22;;;20.00
62930;BMP280;49036;42.782;23.108;2023-08-01T05:21:51;93695.00;;;20.26
62930;BMP280;49036;42.782;23.108;2023-08-01T05:24:16;93700.56;;;20.22
62930;BMP280;49036;42.782;23.108;2023-08-01T05:26:42;93706.34;;;20.28
62930;BMP280;49036;42.782;23.108;2023-08-01T05:29:08;93698.59;;;20.29
62930;BMP280;49036;42.782;23.108;2023-08-01T05:31:33;93696.63;;;20.33
62930;BMP280;49036;42.782;23.108;2023-08-01T05:33:59;93706.84;;;20.20
62930;BMP280;49036;42.782;23.108;2023-08-01T05:36:24;93705.56;;;20.53
62930;BMP280;49036;42.782;23.108;2023-08-01T05:38:50;93706.72;;;20.72
62930;BMP280;49036;42.782;23.108;2023-08-01T05:41:15;93698.41;;;20.78
62930;BMP280;49036;42.782;23.108;2023-08-01T05:43:41;93693.88;;;20.65
62930;BMP280;49036;42.782;23.108;2023-08-01T05:46:06;93694.78;;;20.74
62930;BMP280;49036;42.782;23.108;2023-08-01T05:48:32;93694.94;;;20.82
62930;BMP280;49036;42.782;23.108;2023-08-01T05:50:57;93696.34;;;20.81
62930;BMP280;49036;42.782;23.108;2023-08-01T05:54:12;93694.34;;;20.85
62930;BMP280;49036;42.782;23.108;2023-08-01T05:56:38;93694.63;;;20.98
62930;BMP280;49036;42.782;23.108;2023-08-01T05:59:03;93683.25;;;20.95
62930;BMP280;49036;42.782;23.108;2023-08-01T06:01:29;93689.00;;;21.00
62930;BMP280;49036;42.782;23.108;2023-08-01T06:03:54;93679.09;;;21.30
62930;BMP280;49036;42.782;23.108;2023-08-01T06:06:20;93688.25;;;21.29
62930;BMP280;49036;42.782;23.108;2023-08-01T06:08:45;93686.75;;;21.26
62930;BMP280;49036;42.782;23.108;2023-08-01T06:13:16;93680.97;;;21.20
62930;BMP280;49036;42.782;23.108;2023-08-01T06:15:41;93685.00;;;21.11
62930;BMP280;49036;42.782;23.108;2023-08-01T06:18:07;93691.78;;;21.29
62930;BMP280;49036;42.782;23.108;2023-08-01T06:20:33;93694.75;;;21.38
62930;BMP280;49036;42.782;23.108;2023-08-01T06:22:59;93687.44;;;21.24
62930;BMP280;49036;42.782;23.108;2023-08-01T06:25:24;93692.53;;;21.32
62930;BMP280;49036;42.782;23.108;2023-08-01T06:27:50;93690.38;;;21.30
62930;BMP280;49036;42.782;23.108;2023-08-01T06:31:05;93692.81;;;21.46
62930;BMP280;49036;42.782;23.108;2023-08-01T06:33:31;93680.06;;;21.43
62930;BMP280;49036;42.782;23.108;2023-08-01T06:35:57;93688.56;;;21.45
62930;BMP280;49036;42.782;23.108;2023-08-01T06:40:15;93680.47;;;21.65
62930;BMP280;49036;42.782;23.108;2023-08-01T06:42:40;93680.72;;;21.76
62930;BMP280;49036;42.782;23.108;2023-08-01T06:45:06;93680.72;;;21.76
62930;BMP280;49036;42.782;23.108;2023-08-01T06:47:32;93689.44;;;21.92
62930;BMP280;49036;42.782;23.108;2023-08-01T08:27:01;93617.22;;;24.96
62930;BMP280;49036;42.782;23.108;2023-08-01T08:29:27;93605.38;;;25.75
62930;BMP280;49036;42.782;23.108;2023-08-01T08:31:52;93607.50;;;26.25
62930;BMP280;49036;42.782;23.108;2023-08-01T08:34:18;93612.50;;;26.38
62930;BMP280;49036;42.782;23.108;2023-08-01T08:36:46;93610.94;;;26.90
62930;BMP280;49036;42.782;23.108;2023-08-01T08:39:12;93612.81;;;27.48
62930;BMP280;49036;42.782;23.108;2023-08-01T08:41:46;93600.78;;;27.32
62930;BMP280;49036;42.782;23.108;2023-08-01T08:44:17;93614.50;;;26.95
62930;BMP280;49036;42.782;23.108;2023-08-01T08:46:50;93608.88;;;26.68
62930;BMP280;49036;42.782;23.108;2023-08-01T08:49:16;93598.88;;;26.79
62930;BMP280;49036;42.782;23.108;2023-08-01T08:51:43;93606.69;;;26.85
62930;BMP280;49036;42.782;23.108;2023-08-01T08:54:10;93595.22;;;27.03
62930;BMP280;49036;42.782;23.108;2023-08-01T08:56:36;93594.69;;;26.44
62930;BMP280;49036;42.782;23.108;2023-08-01T08:59:01;93592.56;;;26.47
62930;BMP280;49036;42.782;23.108;2023-08-01T09:01:27;93599.69;;;26.31
62930;BMP280;49036;42.782;23.108;2023-08-01T09:03:52;93599.00;;;26.17
62930;BMP280;49036;42.782;23.108;2023-08-01T09:06:24;93600.44;;;26.04
62930;BMP280;49036;42.782;23.108;2023-08-01T09:10:35;93592.47;;;26.79
62930;BMP280;49036;42.782;23.108;2023-08-01T09:13:01;93589.56;;;26.99
62930;BMP280;49036;42.782;23.108;2023-08-01T09:15:27;93584.72;;;26.45
62930;BMP280;49036;42.782;23.108;2023-08-01T09:17:54;93581.84;;;26.63
62930;BMP280;49036;42.782;23.108;2023-08-01T09:20:26;93571.72;;;27.03
62930;BMP280;49036;42.782;23.108;2023-08-01T09:22:53;93566.25;;;27.82
62930;BMP280;49036;42.782;23.108;2023-08-01T09:25:18;93575.69;;;27.58
62930;BMP280;49036;42.782;23.108;2023-08-01T09:27:44;93572.22;;;27.44
62930;BMP280;49036;42.782;23.108;2023-08-01T09:31:12;93574.31;;;27.51
62930;BMP280;49036;42.782;23.108;2023-08-01T09:33:41;93585.81;;;27.37
62930;BMP280;49036;42.782;23.108;2023-08-01T09:36:10;93567.66;;;27.79
62930;BMP280;49036;42.782;23.108;2023-08-01T09:38:36;93573.16;;;28.08
62930;BMP280;49036;42.782;23.108;2023-08-01T09:41:03;93576.38;;;28.42
62930;BMP280;49036;42.782;23.108;2023-08-01T09:43:36;93570.50;;;29.14
62930;BMP280;49036;42.782;23.108;2023-08-01T09:46:03;93557.97;;;29.89
62930;BMP280;49036;42.782;23.108;2023-08-01T09:48:30;93565.09;;;30.29
62930;BMP280;49036;42.782;23.108;2023-08-01T09:51:12;93552.03;;;29.58
62930;BMP280;49036;42.782;23.108;2023-08-01T09:53:50;93553.31;;;29.67
62930;BMP280;49036;42.782;23.108;2023-08-01T09:56:20;93543.97;;;30.48
62930;BMP280;49036;42.782;23.108;2023-08-01T09:58:47;93550.84;;;29.86
62930;BMP280;49036;42.782;23.108;2023-08-01T10:01:14;93540.00;;;30.31
62930;BMP280;49036;42.782;23.108;2023-08-01T10:03:50;93548.91;;;30.87
62930;BMP280;49036;42.782;23.108;2023-08-01T10:06:37;93530.44;;;31.13
62930;BMP280;49036;42.782;23.108;2023-08-01T10:09:22;93533.00;;;31.56
62930;BMP280;49036;42.782;23.108;2023-08-01T10:11:48;93530.13;;;31.84
62930;BMP280;49036;42.782;23.108;2023-08-01T10:14:15;93527.25;;;31.86
62930;BMP280;49036;42.782;23.108;2023-08-01T10:16:42;93526.94;;;31.70
62930;BMP280;49036;42.782;23.108;2023-08-01T10:19:09;93522.41;;;31.19
62930;BMP280;49036;42.782;23.108;2023-08-01T10:21:35;93520.38;;;31.14
62930;BMP280;49036;42.782;23.108;2023-08-01T10:26:26;93522.63;;;31.40
62930;BMP280;49036;42.782;23.108;2023-08-01T10:29:02;93517.06;;;31.63
62930;BMP280;49036;42.782;23.108;2023-08-01T10:31:28;93514.34;;;31.85
62930;BMP280;49036;42.782;23.108;2023-08-01T10:34:11;93499.31;;;32.36
62930;BMP280;49036;42.782;23.108;2023-08-01T10:36:56;93498.81;;;33.02
62930;BMP280;49036;42.782;23.108;2023-08-01T10:39:23;93500.16;;;33.49
62930;BMP280;49036;42.782;23.108;2023-08-01T10:42:07;93508.00;;;33.29
62930;BMP280;49036;42.782;23.108;2023-08-01T10:44:45;93503.19;;;34.86
62930;BMP280;49036;42.782;23.108;2023-08-01T10:47:11;93496.44;;;35.45
62930;BMP280;49036;42.782;23.108;2023-08-01T10:52:04;93495.22;;;33.89
62930;BMP280;49036;42.782;23.108;2023-08-01T10:54:40;93474.44;;;33.65
62930;BMP280;49036;42.782;23.108;2023-08-01T10:57:06;93473.88;;;33.17
62930;BMP280;49036;42.782;23.108;2023-08-01T10:59:32;93473.53;;;33.71
62930;BMP280;49036;42.782;23.108;2023-08-01T11:01:58;93470.50;;;33.96
62930;BMP280;49036;42.782;23.108;2023-08-01T11:04:25;93466.00;;;32.46
62930;BMP280;49036;42.782;23.108;2023-08-01T11:06:54;93469.75;;;32.15
62930;BMP280;49036;42.782;23.108;2023-08-01T11:09:26;93466.84;;;32.17
62930;BMP280;49036;42.782;23.108;2023-08-01T11:11:57;93456.59;;;33.61
62930;BMP280;49036;42.782;23.108;2023-08-01T11:14:25;93462.88;;;33.01
62930;BMP280;49036;42.782;23.108;2023-08-01T11:16:51;93449.91;;;35.53
62930;BMP280;49036;42.782;23.108;2023-08-01T11:19:25;93455.47;;;36.07
62930;BMP280;49036;42.782;23.108;2023-08-01T11:21:52;93446.34;;;37.81
62930;BMP280;49036;42.782;23.108;2023-08-01T11:24:19;93450.41;;;38.53
62930;BMP280;49036;42.782;23.108;2023-08-01T11:26:47;93450.06;;;38.59
62930;BMP280;49036;42.782;23.108;2023-08-01T11:29:14;93447.03;;;40.31
62930;BMP280;49036;42.782;23.108;2023-08-01T11:31:40;93446.19;;;41.01
62930;BMP280;49036;42.782;23.108;2023-08-01T11:34:09;93442.50;;;41.13
62930;BMP280;49036;42.782;23.108;2023-08-01T11:36:37;93439.88;;;40.75
62930;BMP280;49036;42.782;23.108;2023-08-01T11:41:29;93433.75;;;41.66
62930;BMP280;49036;42.782;23.108;2023-08-01T11:43:55;93435.00;;;42.71
62930;BMP280;49036;42.782;23.108;2023-08-01T11:46:22;93423.50;;;43.26
62930;BMP280;49036;42.782;23.108;2023-08-01T11:48:48;93429.88;;;41.69
62930;BMP280;49036;42.782;23.108;2023-08-01T11:51:15;93422.44;;;43.40
62930;BMP280;49036;42.782;23.108;2023-08-01T11:53:41;93433.28;;;40.97
62930;BMP280;49036;42.782;23.108;2023-08-01T11:56:07;93421.81;;;41.70
62930;BMP280;49036;42.782;23.108;2023-08-01T11:58:35;93427.25;;;42.27
62930;BMP280;49036;42.782;23.108;2023-08-01T12:01:08;93418.56;;;43.14
62930;BMP280;49036;42.782;23.108;2023-08-01T12:03:57;93410.75;;;43.21
62930;BMP280;49036;42.782;23.108;2023-08-01T12:06:23;93418.50;;;41.55
62930;BMP280;49036;42.782;23.108;2023-08-01T12:08:50;93403.00;;;38.18
62930;BMP280;49036;42.782;23.108;2023-08-01T12:11:24;93400.97;;;39.05
62930;BMP280;49036;42.782;23.108;2023-08-01T12:14:09;93403.16;;;39.89
62930;BMP280;49036;42.782;23.108;2023-08-01T12:16:36;93391.66;;;40.88
62930;BMP280;49036;42.782;23.108;2023-08-01T12:19:01;93399.13;;;40.07
62930;BMP280;49036;42.782;23.108;2023-08-01T12:21:28;93393.72;;;39.78
62930;BMP280;49036;42.782;23.108;2023-08-01T12:23:53;93400.53;;;39.85
62930;BMP280;49036;42.782;23.108;2023-08-01T12:26:19;93400.63;;;36.97
62930;BMP280;49036;42.782;23.108;2023-08-01T12:28:44;93390.66;;;38.96
62930;BMP280;49036;42.782;23.108;2023-08-01T12:31:10;93380.69;;;41.95
62930;BMP280;49036;42.782;23.108;2023-08-01T12:33:35;93359.75;;;42.52
62930;BMP280;49036;42.782;23.108;2023-08-01T12:36:02;93366.78;;;43.04
62930;BMP280;49036;42.782;23.108;2023-08-01T12:38:28;93363.38;;;42.12
62930;BMP280;49036;42.782;23.108;2023-08-01T12:40:54;93283.28;;;40.88
62930;BMP280;49036;42.782;23.108;2023-08-01T12:43:19;93248.91;;;41.52
62930;BMP280;49036;42.782;23.108;2023-08-01T12:45:46;93304.63;;;41.27
62930;BMP280;49036;42.782;23.108;2023-08-01T12:48:12;93319.72;;;38.67
62930;BMP280;49036;42.782;23.108;2023-08-01T12:50:37;93329.34;;;38.89
62930;BMP280;49036;42.782;23.108;2023-08-01T12:53:03;93350.50;;;38.37
62930;BMP280;49036;42.782;23.108;2023-08-01T12:55:28;93300.31;;;40.94
62930;BMP280;49036;42.782;23.108;2023-08-01T12:57:53;93324.00;;;42.02
62930;BMP280;49036;42.782;23.108;2023-08-01T13:00:19;93322.28;;;41.76
62930;BMP280;49036;42.782;23.108;2023-08-01T13:02:45;93339.50;;;43.35
62930;BMP280;49036;42.782;23.108;2023-08-01T13:05:12;93312.91;;;43.20
62930;BMP280;49036;42.782;23.108;2023-08-01T13:07:38;93065.78;;;44.69
62930;BMP280;49036;42.782;23.108;2023-08-01T13:10:03;92992.06;;;44.66
62930;BMP280;49036;42.782;23.108;2023-08-01T13:12:29;-15521.31;;;43.45
62930;BMP280;49036;42.782;23.108;2023-08-01T13:14:54;-15509.38;;;43.10
62930;BMP280;49036;42.782;23.108;2023-08-01T13:17:20;-15497.41;;;42.75
62930;BMP280;49036;42.782;23.108;2023-08-01T13:19:46;-15543.81;;;44.10
62930;BMP280;49036;42.782;23.108;2023-08-01T13:22:11;-15492.06;;;42.59
62930;BMP280;49036;42.782;23.108;2023-08-01T13:24:37;-15448.75;;;41.33
62930;BMP280;49036;42.782;23.108;2023-08-01T13:27:02;-15450.84;;;41.39
62930;BMP280;49036;42.782;23.108;2023-08-01T13:29:28;-15447.72;;;41.30
62930;BMP280;49036;42.782;23.108;2023-08-01T13:31:53;-15526.34;;;43.59
62930;BMP280;49036;42.782;23.108;2023-08-01T13:34:19;-15555.41;;;44.44
62930;BMP280;49036;42.782;23.108;2023-08-01T13:36:44;-15509.03;;;43.09
62930;BMP280;49036;42.782;23.108;2023-08-01T13:39:10;-15484.97;;;42.39
62930;BMP280;49036;42.782;23.108;2023-08-01T13:41:36;-15371.16;;;39.07
62930;BMP280;49036;42.782;23.108;2023-08-01T13:44:01;-15363.88;;;38.86
62930;BMP280;49036;42.782;23.108;2023-08-01T13:46:27;-15315.88;;;37.46
62930;BMP280;49036;42.782;23.108;2023-08-01T13:48:53;-15296.28;;;36.89
62930;BMP280;49036;42.782;23.108;2023-08-01T13:51:18;-15397.13;;;39.83
62930;BMP280;49036;42.782;23.108;2023-08-01T13:53:43;-15360.41;;;38.76
62930;BMP280;49036;42.782;23.108;2023-08-01T13:56:10;-15265.44;;;35.99
62930;BMP280;49036;42.782;23.108;2023-08-01T13:58:36;-15236.50;;;35.15
62930;BMP280;49036;42.782;23.108;2023-08-01T14:01:06;-15311.38;;;37.33
62930;BMP280;49036;42.782;23.108;2023-08-01T14:06:14;-15506.94;;;43.03
62930;BMP280;49036;42.782;23.108;2023-08-01T14:08:40;-15585.19;;;45.31
62930;BMP280;49036;42.782;23.108;2023-08-01T14:11:08;-15576.53;;;45.05
62930;BMP280;49036;42.782;23.108;2023-08-01T14:13:35;-15614.63;;;46.16
62930;BMP280;49036;42.782;23.108;2023-08-01T14:16:01;-15589.19;;;45.42
62930;BMP280;49036;42.782;23.108;2023-08-01T14:18:27;-15500.00;;;42.83
62930;BMP280;49036;42.782;23.108;2023-08-01T14:20:53;-15413.59;;;40.31
62930;BMP280;49036;42.782;23.108;2023-08-01T14:23:19;-15341.00;;;38.19
62930;BMP280;49036;42.782;23.108;2023-08-01T14:25:45;-15363.19;;;38.84
62930;BMP280;49036;42.782;23.108;2023-08-01T14:28:11;-15356.44;;;38.64
62930;BMP280;49036;42.782;23.108;2023-08-01T14:30:37;-15276.38;;;36.31
62930;BMP280;49036;42.782;23.108;2023-08-01T14:33:08;-15247.59;;;35.47
62930;BMP280;49036;42.782;23.108;2023-08-01T14:35:36;-15275.84;;;36.30
62930;BMP280;49036;42.782;23.108;2023-08-01T14:38:03;-15352.25;;;38.52
62930;BMP280;49036;42.782;23.108;2023-08-01T14:40:29;-15454.31;;;41.49
62930;BMP280;49036;42.782;23.108;2023-08-01T14:42:55;-15531.00;;;43.73
62930;BMP280;49036;42.782;23.108;2023-08-01T14:45:21;-15610.97;;;46.06
62930;BMP280;49036;42.782;23.108;2023-08-01T14:47:46;-15616.88;;;46.23
62930;BMP280;49036;42.782;23.108;2023-08-01T14:50:13;-15571.34;;;44.90
62930;BMP280;49036;42.782;23.108;2023-08-01T14:52:38;-15645.94;;;47.08
62930;BMP280;49036;42.782;23.108;2023-08-01T14:55:05;-15630.19;;;46.62
62930;BMP280;49036;42.782;23.108;2023-08-01T14:57:31;-15626.03;;;46.50
62930;BMP280;49036;42.782;23.108;2023-08-01T14:59:56;-15623.28;;;46.42
62930;BMP280;49036;42.782;23.108;2023-08-01T15:02:22;-15640.56;;;46.92
62930;BMP280;49036;42.782;23.108;2023-08-01T15:04:55;-15634.69;;;46.75
62930;BMP280;49036;42.782;23.108;2023-08-01T15:07:22;-15536.72;;;43.90
62930;BMP280;49036;42.782;23.108;2023-08-01T15:09:48;-15493.44;;;42.63
62930;BMP280;49036;42.782;23.108;2023-08-01T15:12:15;-15456.72;;;41.57
62930;BMP280;49036;42.782;23.108;2023-08-01T15:14:41;-15388.13;;;39.57
62930;BMP280;49036;42.782;23.108;2023-08-01T15:17:06;-15392.47;;;39.69
62930;BMP280;49036;42.782;23.108;2023-08-01T15:19:34;-15377.75;;;39.26
62930;BMP280;49036;42.782;23.108;2023-08-01T15:22:00;-15364.56;;;38.88
62930;BMP280;49036;42.782;23.108;2023-08-01T15:24:25;-15308.94;;;37.26
62930;BMP280;49036;42.782;23.108;2023-08-01T15:26:51;-15293.00;;;36.80
62930;BMP280;49036;42.782;23.108;2023-08-01T15:29:16;-15244.13;;;35.37
62930;BMP280;49036;42.782;23.108;2023-08-01T15:33:34;-15168.41;;;33.16
62930;BMP280;49036;42.782;23.108;2023-08-01T15:36:33;-15210.16;;;34.38
62930;BMP280;49036;42.782;23.108;2023-08-01T15:38:58;-15350.00;;;38.46
62930;BMP280;49036;42.782;23.108;2023-08-01T15:41:24;93239.59;;;40.01
62930;BMP280;49036;42.782;23.108;2023-08-01T15:43:49;93236.34;;;39.27
62930;BMP280;49036;42.782;23.108;2023-08-01T15:46:15;93138.94;;;41.31
62930;BMP280;49036;42.782;23.108;2023-08-01T15:48:40;93084.16;;;40.43
62930;BMP280;49036;42.782;23.108;2023-08-01T15:51:07;93060.81;;;39.13